Nephi, UT (84648)

5:35 PM MDT on August 03, 2015 (GMT -0600)
Fountain Green | | Change Station
CLOSE
Current Station
Personal Weather Station
Location: Fountain Green, UT
Elevation: 5912 ft
Nearby Weather Stations

Elev 5912 ft 39.63 °N, 111.63 °W | Updated 10 seconds ago

Mostly Cloudy
Mostly Cloudy
77.2 °F
Feels Like 78 °F
N
6.7
Wind Variable Wind from West

Today
High -- | Low -- °F
--% Chance of Precip.
Yesterday
High -- | Low -- °F
Precip. -- in
6:28 AM 8:38 PM
Waning Gibbous, 83% visible
Pressure 30.15 in
Visibility 15.0 miles
Clouds Few 4000 ft
Scattered Clouds 8000 ft
Mostly Cloudy 12000 ft
Heat Index 78 °F
Dew Point 50 °F
Humidity 38%
Rainfall 0.60 in
Snow Depth Not available.
UV 3 out of 12
Pollen 1.90 out of 12
Air Quality Not available.
Flu Activity Not available.
METAR KPVU 032247Z 27006KT 15SM FEW040 SCT080 BKN120 21/12 A3015

More Conditions Fewer Conditions

Pressure 30.15 in
Visibility 15.0 miles
Clouds Few 4000 ft
Scattered Clouds 8000 ft
Mostly Cloudy 12000 ft
Heat Index 78 °F
Dew Point 50 °F
Humidity 38%
Rainfall 0.60 in
Snow Depth Not available.
UV 3 out of 12
Pollen 1.90 out of 12
Air Quality Not available.
Flu Activity Not available.
METAR KPVU 032247Z 27006KT 15SM FEW040 SCT080 BKN120 21/12 A3015

More Conditions Fewer Conditions

10-Day Weather Forecast

×

Almanac

Astronomy

Aug. 03, 2015 Rise Set
Actual Time
Civil Twilight
Nautical Twilight
Astronomical Twilight
Moon
Length of Visible Light
Length of Day
Tomorrow will be .
, % of the Moon is Illuminated

Today's Extremes

State Highs State Lows

Community

WunderPhotos

Upload Photos

1,843,790 photos uploaded!

WunderBlogs® & News

Nearby

Air Quality

  Air Quality AQ Index Pollutant
Not available.

Snow Depth

Station Depth Elevation

Earthquake Activity

City Distance Mag. Time & Date
Minimum magnitude displayed is 2.5.

Coastal Water Temperatures

Place Temperature

Stations

Nearby Weather Stations

Station Location Temp. Windchill Dew Point Humidity Wind Precip. Elev Updated Type